Time;durP1;ratioP1;P1;durP2;ratioP2;P2;SDS_P1;SDS_P2;PMS_P1;PMS_P2;Temp;Humidity;BMP_temperature;BMP_pressure;BME280_temperature;BME280_humidity;BME280_pressure;Samples;Min_cycle;Max_cycle;Signal;HPM_P1;HPM_P2
2022/12/26 00:00:59;;;;;;;0.80;0.80;;;;;;;-5.10;76.00;100394.19;4982552;28;20149;-83
2022/12/26 00:03:26;;;;;;;0.88;0.88;;;;;;;-5.06;76.03;100394.84;4980179;28;20097;-83
2022/12/26 00:05:53;;;;;;;0.60;0.60;;;;;;;-5.14;76.34;100382.22;4974152;28;20548;-84
2022/12/26 00:08:20;;;;;;;0.73;0.73;;;;;;;-5.05;76.39;100392.06;4994182;28;20141;-83
2022/12/26 00:10:47;;;;;;;0.70;0.70;;;;;;;-5.02;76.14;100398.91;4976606;28;20088;-83
2022/12/26 00:13:14;;;;;;;0.75;0.75;;;;;;;-5.07;75.98;100390.50;4994078;28;20080;-83
2022/12/26 00:16:10;;;;;;;0.80;0.80;;;;;;;-5.04;75.76;100401.69;4993935;28;20113;-84
2022/12/26 00:18:38;;;;;;;0.95;0.95;;;;;;;-5.19;75.81;100381.72;4974722;28;20082;-83
2022/12/26 00:21:06;;;;;;;0.70;0.70;;;;;;;-5.14;75.69;100399.78;4994053;28;20347;-83
2022/12/26 00:23:33;;;;;;;0.90;0.90;;;;;;;-5.05;75.73;100409.66;4976346;28;20054;-83
2022/12/26 00:26:11;;;;;;;0.90;0.90;;;;;;;-5.12;75.53;100396.09;4993748;28;20050;-84
2022/12/26 00:28:40;;;;;;;0.70;0.70;;;;;;;-5.08;75.21;100404.63;4976513;28;20104;-82
2022/12/26 00:31:13;;;;;;;0.80;0.80;;;;;;;-5.09;74.94;100413.47;4993727;28;20133;-83
2022/12/26 00:33:41;;;;;;;0.80;0.80;;;;;;;-5.19;75.28;100404.53;4976321;28;20046;-84
2022/12/26 00:36:17;;;;;;;0.80;0.80;;;;;;;-5.13;75.37;100420.75;4993507;28;20422;-83
2022/12/26 00:38:44;;;;;;;0.70;0.70;;;;;;;-5.18;75.38;100416.78;4993366;28;20149;-84
2022/12/26 00:41:12;;;;;;;0.73;0.73;;;;;;;-5.14;75.70;100426.13;4993703;28;20050;-85
2022/12/26 00:43:40;;;;;;;0.70;0.70;;;;;;;-5.15;75.95;100427.06;4976003;28;20081;-84
2022/12/26 00:46:07;;;;;;;1.00;1.00;;;;;;;-5.07;75.96;100419.47;4975734;28;20477;-85
2022/12/26 00:48:35;;;;;;;0.77;0.77;;;;;;;-5.05;75.98;100438.63;4992964;28;20402;-84
2022/12/26 00:51:03;;;;;;;0.70;0.70;;;;;;;-5.12;75.88;100424.22;4975744;28;20100;-84
2022/12/26 00:53:30;;;;;;;0.80;0.80;;;;;;;-5.09;76.00;100426.63;4959414;28;20053;-84
2022/12/26 00:55:57;;;;;;;0.60;0.60;;;;;;;-5.13;76.21;100426.00;4993116;28;20093;-83
2022/12/26 00:58:24;;;;;;;0.63;0.63;;;;;;;-5.09;76.17;100437.16;4993168;28;20104;-84
2022/12/26 01:00:52;;;;;;;0.80;0.80;;;;;;;-5.08;76.38;100431.78;4993201;28;20054;-84
2022/12/26 01:03:19;;;;;;;0.73;0.73;;;;;;;-5.15;76.67;100424.44;4992930;28;20050;-84
2022/12/26 01:05:48;;;;;;;0.85;0.85;;;;;;;-5.06;76.77;100434.31;4959417;28;20046;-84
2022/12/26 01:08:17;;;;;;;0.80;0.80;;;;;;;-5.05;77.30;100433.38;4992994;28;20057;-84
2022/12/26 01:10:49;;;;;;;0.90;0.90;;;;;;;-5.05;77.41;100441.25;4976165;28;20050;-85
2022/12/26 01:13:16;;;;;;;0.63;0.63;;;;;;;-5.04;77.69;100432.41;4993024;28;20137;-83
2022/12/26 01:15:50;;;;;;;0.95;0.95;;;;;;;-4.97;77.74;100435.44;4992701;28;20050;-84
2022/12/26 01:18:19;;;;;;;0.90;0.90;;;;;;;-4.99;77.77;100429.44;4992585;28;20047;-84
2022/12/26 01:20:46;;;;;;;0.80;0.80;;;;;;;-4.98;77.72;100431.97;4992635;28;20054;-84
2022/12/26 01:23:14;;;;;;;0.80;0.80;;;;;;;-4.98;78.16;100437.25;4993140;28;20061;-84
2022/12/26 01:25:42;;;;;;;0.80;0.80;;;;;;;-4.96;78.40;100435.34;4977023;28;20492;-84
2022/12/26 01:28:29;;;;;;;0.75;0.75;;;;;;;-4.92;78.24;100436.78;4992591;28;20050;-84
2022/12/26 01:31:00;;;;;;;0.73;0.73;;;;;;;-4.91;78.51;100432.38;4992713;28;20054;-83
2022/12/26 01:33:27;;;;;;;0.70;0.70;;;;;;;-4.89;78.63;100443.63;4992427;28;20061;-84
2022/12/26 01:35:55;;;;;;;0.77;0.77;;;;;;;-4.92;78.49;100439.44;4992399;28;20088;-84
2022/12/26 01:38:23;;;;;;;0.70;0.70;;;;;;;-4.89;78.80;100441.84;4975172;28;20050;-83
2022/12/26 01:41:15;;;;;;;0.85;0.85;;;;;;;-4.91;78.91;100443.75;4992415;28;20137;-84
2022/12/26 01:44:00;;;;;;;0.82;0.82;;;;;;;-4.94;78.87;100449.22;4974712;28;20048;-84
2022/12/26 01:46:31;;;;;;;0.80;0.80;;;;;;;-4.97;78.71;100441.56;4992259;28;20054;-83
2022/12/26 01:49:03;;;;;;;0.80;0.80;;;;;;;-5.00;78.92;100436.50;4958951;28;20056;-84
2022/12/26 01:51:33;;;;;;;0.80;0.80;;;;;;;-4.98;79.03;100437.25;4958571;28;20050;-83
2022/12/26 01:54:02;;;;;;;1.00;1.00;;;;;;;-4.94;79.19;100432.59;4974929;28;20050;-83
2022/12/26 01:56:50;;;;;;;0.80;0.80;;;;;;;-4.92;78.92;100446.50;4992089;28;20047;-82
2022/12/26 01:59:20;;;;;;;0.80;0.80;;;;;;;-4.92;79.06;100449.13;4991378;28;20061;-82
2022/12/26 02:01:49;;;;;;;0.90;0.90;;;;;;;-5.01;79.16;100438.31;4991651;28;20057;-83
2022/12/26 02:07:10;;;;;;;0.80;0.80;;;;;;;-4.97;79.46;100446.81;4991984;28;20058;-83
2022/12/26 02:09:37;;;;;;;0.80;0.80;;;;;;;-4.97;79.23;100438.09;4991729;28;20056;-83
2022/12/26 02:12:08;;;;;;;0.80;0.80;;;;;;;-4.95;79.53;100439.66;4974331;28;20073;-83
2022/12/26 02:15:16;;;;;;;0.80;0.80;;;;;;;-4.94;79.67;100433.44;4966382;28;20066;-84
2022/12/26 02:17:45;;;;;;;0.80;0.80;;;;;;;-4.92;79.72;100436.78;4974417;28;20492;-83
2022/12/26 02:20:23;;;;;;;0.70;0.70;;;;;;;-4.85;79.75;100438.03;4974574;28;20050;-84
2022/12/26 02:23:34;;;;;;;0.70;0.70;;;;;;;-4.84;79.61;100430.97;4988954;28;20046;-84
2022/12/26 02:26:19;;;;;;;0.80;0.80;;;;;;;-4.85;79.74;100424.03;4961178;28;20054;-83
2022/12/26 02:29:04;;;;;;;0.80;0.80;;;;;;;-4.88;79.48;100427.72;4994668;28;20508;-84
2022/12/26 02:31:40;;;;;;;;;;;;;;;-4.90;79.75;100424.38;4967307;28;20265;-83
2022/12/26 02:34:20;;;;;;;0.85;0.85;;;;;;;-4.97;79.43;100427.56;4991796;28;19932;-83
2022/12/26 02:37:05;;;;;;;0.60;0.60;;;;;;;-5.08;79.51;100430.97;4974377;28;20149;-83
2022/12/26 02:40:07;;;;;;;0.65;0.65;;;;;;;-5.08;79.73;100431.78;4974101;28;20512;-83
2022/12/26 02:42:57;;;;;;;0.90;0.90;;;;;;;-5.00;79.87;100433.88;4974186;28;20537;-84
2022/12/26 02:48:30;;;;;;;0.70;0.70;;;;;;;-5.05;80.23;100428.94;4991175;28;20137;-84
2022/12/26 03:13:09;;;;;;;0.80;0.80;;;;;;;-5.07;80.08;100424.72;4976513;28;20046;-84
2022/12/26 03:14:47;;;;;;;0.98;0.98;;;;;;;-5.03;80.11;100444.63;4976906;28;20054;-84
2022/12/26 03:17:37;;;;;;;0.70;0.70;;;;;;;-5.05;79.84;100442.09;4990898;28;20058;-83
2022/12/26 03:20:09;;;;;;;0.68;0.68;;;;;;;-5.05;79.51;100446.53;4978578;28;20051;-83
2022/12/26 03:22:48;;;;;;;0.77;0.77;;;;;;;-5.06;79.01;100447.50;4973492;28;20058;-83
2022/12/26 03:28:16;;;;;;;0.82;0.82;;;;;;;-5.06;78.89;100455.41;4958996;28;20054;-82
2022/12/26 03:30:49;;;;;;;0.73;0.73;;;;;;;-4.99;78.74;100451.34;4990191;28;20046;-82
2022/12/26 03:36:40;;;;;;;0.80;0.80;;;;;;;-5.02;78.53;100451.56;4990407;28;20105;-83
2022/12/26 04:41:34;;;;;;;0.60;0.60;;;;;;;-5.09;77.14;100463.47;4978613;28;20153;-86
2022/12/26 04:46:27;;;;;;;0.70;0.70;;;;;;;-5.13;77.14;100469.94;4976774;28;20583;-85
2022/12/26 04:51:41;;;;;;;0.70;0.70;;;;;;;-5.09;77.04;100474.00;4977980;28;20054;-84
2022/12/26 04:54:08;;;;;;;0.80;0.80;;;;;;;-5.08;77.11;100460.75;4973616;28;20526;-86
2022/12/26 04:56:35;;;;;;;0.73;0.73;;;;;;;-5.04;77.21;100474.53;4987185;28;20060;-84
2022/12/26 04:59:02;;;;;;;0.68;0.68;;;;;;;-5.05;76.99;100476.31;4949271;28;20563;-85
2022/12/26 05:09:58;;;;;;;0.50;0.50;;;;;;;-5.01;76.61;100490.97;4961884;28;20082;-86
2022/12/26 05:12:25;;;;;;;0.80;0.80;;;;;;;-5.06;76.85;100492.25;4968131;28;20109;-85
2022/12/26 05:14:53;;;;;;;0.90;0.90;;;;;;;-5.08;76.85;100491.50;4975327;28;20049;-83
2022/12/26 05:28:40;;;;;;;0.65;0.65;;;;;;;-5.09;76.45;100498.56;4914394;29;20059;-85
2022/12/26 05:31:13;;;;;;;0.82;0.82;;;;;;;-5.17;76.41;100490.34;4913518;29;20529;-84
2022/12/26 05:36:37;;;;;;;0.70;0.70;;;;;;;-5.13;76.59;100496.25;4918879;29;20059;-83
2022/12/26 05:39:13;;;;;;;0.80;0.80;;;;;;;-5.18;76.81;100493.09;4894800;29;20053;-83
2022/12/26 05:41:41;;;;;;;0.70;0.70;;;;;;;-5.21;76.95;100498.59;4904111;29;20706;-83
2022/12/26 05:44:09;;;;;;;0.70;0.70;;;;;;;-5.21;77.12;100499.44;4909834;29;20444;-81
2022/12/26 05:46:37;;;;;;;0.80;0.80;;;;;;;-5.16;77.27;100499.13;4911175;29;20521;-82
2022/12/26 05:49:04;;;;;;;0.82;0.82;;;;;;;-5.09;77.38;100493.31;4913509;29;20151;-87
2022/12/26 05:51:32;;;;;;;0.85;0.85;;;;;;;-5.16;77.04;100478.06;4913928;29;20075;-85
2022/12/26 05:54:00;;;;;;;0.90;0.90;;;;;;;-5.08;77.04;100492.34;4910126;29;20056;-86
2022/12/26 05:56:27;;;;;;;0.90;0.90;;;;;;;-5.04;76.63;100493.81;4910498;29;20066;-85
2022/12/26 05:58:56;;;;;;;1.00;1.00;;;;;;;-4.98;76.83;100500.44;4912247;29;20618;-85
2022/12/26 06:01:24;;;;;;;0.65;0.65;;;;;;;-5.03;76.71;100507.81;4921239;28;20052;-85
2022/12/26 06:03:53;;;;;;;0.60;0.60;;;;;;;-5.11;76.68;100500.47;4971237;28;20062;-87
2022/12/26 06:06:21;;;;;;;0.60;0.60;;;;;;;-5.13;76.81;100502.34;4973991;28;20105;-85
2022/12/26 06:08:50;;;;;;;0.80;0.80;;;;;;;-5.08;76.87;100504.69;4956539;28;20066;-88
2022/12/26 06:11:18;;;;;;;0.88;0.88;;;;;;;-5.09;76.81;100503.84;4974187;28;20518;-86
2022/12/26 06:13:46;;;;;;;0.75;0.75;;;;;;;-5.19;76.66;100502.81;4973714;28;20055;-86
2022/12/26 06:16:15;;;;;;;0.70;0.70;;;;;;;-5.18;76.51;100508.91;4959288;28;20146;-87
2022/12/26 06:18:48;;;;;;;0.80;0.80;;;;;;;-5.21;76.48;100501.22;4959707;28;20528;-87
2022/12/26 06:21:29;;;;;;;0.73;0.73;;;;;;;-5.21;76.14;100511.75;4914947;28;20098;-90
2022/12/26 06:23:56;;;;;;;0.90;0.90;;;;;;;-5.19;76.20;100509.84;4975439;28;20047;-85
2022/12/26 06:26:23;;;;;;;0.60;0.60;;;;;;;-5.17;76.42;100500.88;4975322;28;20457;-86
2022/12/26 06:28:50;;;;;;;0.75;0.75;;;;;;;-5.15;76.51;100506.03;4969286;28;20074;-85
2022/12/26 06:31:21;;;;;;;0.60;0.60;;;;;;;-5.14;76.53;100515.63;4942041;28;20067;-87
2022/12/26 06:33:50;;;;;;;0.70;0.70;;;;;;;-5.18;76.69;100520.25;4972212;28;20043;-87
2022/12/26 06:36:20;;;;;;;0.60;0.60;;;;;;;-5.16;76.58;100522.81;4929013;29;20073;-89
2022/12/26 06:38:47;;;;;;;0.60;0.60;;;;;;;-5.13;76.65;100533.13;4952681;29;20185;-86
2022/12/26 06:41:17;;;;;;;0.77;0.77;;;;;;;-5.09;76.53;100534.56;4951539;29;20590;-87
2022/12/26 06:43:44;;;;;;;0.75;0.75;;;;;;;-5.09;76.31;100534.56;4937091;29;20051;-88
2022/12/26 06:46:14;;;;;;;0.90;0.90;;;;;;;-5.11;76.00;100532.06;4956262;29;20051;-86
2022/12/26 06:48:47;;;;;;;0.80;0.80;;;;;;;-5.07;76.11;100533.50;4943210;29;20054;-86
2022/12/26 06:51:34;;;;;;;0.77;0.77;;;;;;;-4.96;75.73;100545.94;4946859;29;20529;-88
2022/12/26 06:54:01;;;;;;;0.80;0.80;;;;;;;-4.84;75.71;100552.13;4960874;29;20057;-87
2022/12/26 06:56:30;;;;;;;0.80;0.80;;;;;;;-4.95;75.34;100537.09;4955227;29;20055;-89
2022/12/26 06:59:00;;;;;;;0.68;0.68;;;;;;;-4.84;75.44;100552.97;4939345;29;20121;-89
2022/12/26 07:01:29;;;;;;;0.63;0.63;;;;;;;-4.85;75.22;100546.03;4940990;29;20051;-90
2022/12/26 07:03:57;;;;;;;0.70;0.70;;;;;;;-4.87;75.04;100542.66;4957918;29;20500;-90
2022/12/26 07:06:33;;;;;;;0.80;0.80;;;;;;;-4.77;75.16;100549.91;4943198;29;20162;-91
2022/12/26 07:09:11;;;;;;;0.60;0.60;;;;;;;-4.81;75.16;100536.09;4911531;29;20098;-88
2022/12/26 07:11:41;;;;;;;0.70;0.70;;;;;;;-4.73;74.74;100541.69;4923395;29;20058;-92
2022/12/26 07:14:08;;;;;;;0.80;0.80;;;;;;;-4.70;74.80;100545.91;4938792;29;20507;-91
2022/12/26 07:16:37;;;;;;;0.60;0.60;;;;;;;-4.63;74.69;100555.06;4954038;29;20055;-87
2022/12/26 07:19:04;;;;;;;0.70;0.70;;;;;;;-4.51;74.76;100558.59;4940459;29;20057;-88
2022/12/26 07:21:32;;;;;;;0.90;0.90;;;;;;;-4.48;74.32;100561.00;4937961;29;20146;-90
2022/12/26 07:24:16;;;;;;;0.70;0.70;;;;;;;-4.51;74.40;100555.97;4961919;28;20055;-89
2022/12/26 07:26:49;;;;;;;0.80;0.80;;;;;;;-4.51;74.19;100558.59;4953641;29;20075;-86
2022/12/26 07:29:17;;;;;;;0.70;0.70;;;;;;;-4.55;74.05;100552.72;4955055;29;20059;-84
2022/12/26 07:31:44;;;;;;;1.00;1.00;;;;;;;-4.53;74.04;100558.72;4934688;29;20426;-85
2022/12/26 07:34:12;;;;;;;0.80;0.80;;;;;;;-4.52;74.05;100560.38;4960504;28;20057;-87
2022/12/26 07:36:40;;;;;;;0.52;0.52;;;;;;;-4.57;73.29;100554.59;5001113;28;20120;-87
2022/12/26 07:39:12;;;;;;;0.90;0.90;;;;;;;-4.53;73.32;100558.72;4992695;28;20142;-87
2022/12/26 07:41:58;;;;;;;0.63;0.63;;;;;;;-4.47;73.30;100565.34;5011292;28;20049;-90
2022/12/26 07:44:29;;;;;;;0.80;0.80;;;;;;;-4.38;73.20;100567.28;4993847;28;20471;-88
2022/12/26 07:46:57;;;;;;;0.80;0.80;;;;;;;-4.39;72.87;100566.47;4976836;28;20531;-84
2022/12/26 07:49:24;;;;;;;0.80;0.80;;;;;;;-4.31;72.89;100567.72;4994127;28;20042;-87
2022/12/26 07:51:52;;;;;;;0.90;0.90;;;;;;;-4.26;72.62;100565.59;4992877;28;20053;-87
2022/12/26 07:54:19;;;;;;;0.50;0.50;;;;;;;-4.22;72.53;100567.06;5011166;28;20077;-87
2022/12/26 07:56:46;;;;;;;0.77;0.77;;;;;;;-4.35;72.42;100559.19;5010640;28;20081;-87
2022/12/26 07:59:15;;;;;;;0.88;0.88;;;;;;;-4.34;72.39;100562.66;5010919;28;20057;-84
2022/12/26 08:01:43;;;;;;;0.80;0.80;;;;;;;-4.43;72.43;100551.84;4992300;28;20046;-86
2022/12/26 08:04:11;;;;;;;0.70;0.70;;;;;;;-4.30;72.22;100575.53;4992443;28;20048;-85
2022/12/26 08:06:41;;;;;;;0.80;0.80;;;;;;;-4.40;72.28;100564.78;4995284;28;20053;-88
2022/12/26 08:09:14;;;;;;;0.90;0.90;;;;;;;-4.44;71.90;100568.59;4997734;28;20570;-86
2022/12/26 08:12:00;;;;;;;0.80;0.80;;;;;;;-4.48;72.16;100575.03;4999268;28;20046;-87
2022/12/26 08:14:28;;;;;;;0.80;0.80;;;;;;;-4.48;72.20;100582.94;5003888;28;20054;-84
2022/12/26 08:17:01;;;;;;;1.00;1.00;;;;;;;-4.48;71.89;100574.19;5000259;28;20081;-90
2022/12/26 08:19:37;;;;;;;0.73;0.73;;;;;;;-4.50;71.73;100581.38;5014544;28;20076;-87
2022/12/26 08:22:04;;;;;;;0.80;0.80;;;;;;;-4.46;71.55;100580.19;5000156;28;20054;-86
2022/12/26 08:24:32;;;;;;;0.70;0.70;;;;;;;-4.47;71.97;100583.78;4951967;28;20050;-88
2022/12/26 08:26:59;;;;;;;0.60;0.60;;;;;;;-4.50;71.97;100569.03;4979079;28;20524;-84
2022/12/26 08:29:27;;;;;;;0.90;0.90;;;;;;;-4.30;71.71;100590.47;5013803;28;20054;-85
2022/12/26 08:31:54;;;;;;;0.73;0.73;;;;;;;-4.26;71.38;100576.13;4998283;28;20082;-86
2022/12/26 08:34:21;;;;;;;0.93;0.93;;;;;;;-4.37;71.25;100564.56;4971282;28;20152;-87
2022/12/26 08:36:50;;;;;;;0.75;0.75;;;;;;;-4.23;71.29;100578.53;4998562;28;20073;-87
2022/12/26 08:39:19;;;;;;;0.70;0.70;;;;;;;-4.38;71.22;100554.97;4980089;28;20517;-85
2022/12/26 08:41:46;;;;;;;0.80;0.80;;;;;;;-4.28;71.16;100575.38;4968674;28;20149;-86
2022/12/26 08:44:16;;;;;;;0.63;0.63;;;;;;;-4.24;71.02;100574.22;4982813;28;20202;-85
2022/12/26 08:46:54;;;;;;;0.80;0.80;;;;;;;-4.29;71.17;100565.81;5006300;28;20056;-89
2022/12/26 08:49:21;;;;;;;0.80;0.80;;;;;;;-4.37;71.06;100559.28;5004688;28;20467;-88
2022/12/26 08:51:48;;;;;;;0.90;0.90;;;;;;;-4.24;71.00;100572.44;5019192;28;20077;-89
2022/12/26 08:54:18;;;;;;;0.95;0.95;;;;;;;-4.17;71.06;100578.09;4990031;28;20049;-90
2022/12/26 08:56:46;;;;;;;0.80;0.80;;;;;;;-4.28;70.56;100562.22;4973136;28;20223;-89
2022/12/26 08:59:17;;;;;;;0.75;0.75;;;;;;;-4.20;70.91;100570.44;4952015;28;20065;-85
2022/12/26 09:01:44;;;;;;;0.77;0.77;;;;;;;-4.17;70.63;100575.47;4980443;28;20058;-87
2022/12/26 09:04:12;;;;;;;0.80;0.80;;;;;;;-4.15;70.58;100573.56;4977478;28;20518;-86
2022/12/26 09:06:39;;;;;;;1.00;1.00;;;;;;;-4.09;70.52;100575.75;4956669;28;20139;-86
2022/12/26 09:09:10;;;;;;;0.80;0.80;;;;;;;-4.19;70.13;100570.28;4973207;28;20058;-86
2022/12/26 09:11:40;;;;;;;0.80;0.80;;;;;;;-4.07;70.23;100576.47;4975130;28;20075;-86
2022/12/26 09:14:11;;;;;;;0.85;0.85;;;;;;;-4.12;70.25;100572.50;4965044;28;20753;-87
2022/12/26 09:16:41;;;;;;;0.70;0.70;;;;;;;-4.10;70.24;100574.06;4958210;28;20524;-82
2022/12/26 09:19:17;;;;;;;0.80;0.80;;;;;;;-4.12;70.03;100578.63;4960688;28;20050;-84
2022/12/26 09:21:46;;;;;;;0.70;0.70;;;;;;;-4.11;70.02;100579.44;4993896;28;20070;-85
2022/12/26 09:24:16;;;;;;;0.80;0.80;;;;;;;-4.16;70.29;100569.22;4954461;28;20055;-84
2022/12/26 09:26:50;;;;;;;0.98;0.98;;;;;;;-4.16;69.88;100570.06;4989238;28;20042;-86
2022/12/26 09:29:17;;;;;;;0.73;0.73;;;;;;;-4.20;69.79;100560.72;4959593;28;20682;-85
2022/12/26 09:31:44;;;;;;;0.70;0.70;;;;;;;-4.10;69.81;100570.56;4986123;28;20572;-85
2022/12/26 09:34:11;;;;;;;1.00;1.00;;;;;;;-4.24;69.19;100555.78;4985821;28;20070;-88
2022/12/26 09:36:38;;;;;;;0.90;0.90;;;;;;;-4.17;69.47;100559.66;4973295;28;20564;-85
2022/12/26 09:39:10;;;;;;;0.50;0.50;;;;;;;-4.12;69.73;100567.22;4971714;28;20142;-83
2022/12/26 09:41:56;;;;;;;0.63;0.63;;;;;;;-4.06;69.84;100566.78;4957431;28;20054;-85
2022/12/26 09:44:24;;;;;;;1.00;1.00;;;;;;;-4.08;69.69;100566.88;4984326;28;20125;-86
2022/12/26 09:47:10;;;;;;;0.90;0.90;;;;;;;-4.11;69.69;100563.63;4971715;28;20070;-85
2022/12/26 09:49:49;;;;;;;0.73;0.73;;;;;;;-4.14;69.96;100557.63;4972342;28;20058;-87
2022/12/26 09:52:21;;;;;;;1.00;1.00;;;;;;;-4.16;70.07;100556.88;4966909;28;20588;-85
2022/12/26 09:55:23;;;;;;;0.70;0.70;;;;;;;-4.17;70.36;100551.75;4973184;28;20060;-84
2022/12/26 09:57:56;;;;;;;0.57;0.57;;;;;;;-4.16;70.02;100546.34;4920268;29;20142;-84
2022/12/26 10:00:30;;;;;;;0.98;0.98;;;;;;;-4.19;69.95;100543.09;4931450;29;20063;-85
2022/12/26 10:02:58;;;;;;;0.77;0.77;;;;;;;-4.23;69.97;100542.50;4930736;29;20059;-87
2022/12/26 10:05:33;;;;;;;0.65;0.65;;;;;;;-4.24;69.88;100543.41;4931850;29;20052;-83
2022/12/26 10:08:21;;;;;;;0.90;0.90;;;;;;;-4.45;69.65;100534.44;4931490;29;20099;-86
2022/12/26 10:11:11;;;;;;;0.90;0.90;;;;;;;-4.52;70.12;100536.69;4921967;29;20055;-88
2022/12/26 10:13:51;;;;;;;0.70;0.70;;;;;;;-4.61;70.47;100542.59;4929213;29;20048;-88
2022/12/26 10:16:49;;;;;;;0.77;0.77;;;;;;;-4.40;70.59;100545.50;4915875;29;20059;-85
2022/12/26 10:19:29;;;;;;;0.95;0.95;;;;;;;-4.37;70.75;100542.63;4894291;29;20075;-85
2022/12/26 10:22:04;;;;;;;0.88;0.88;;;;;;;-4.32;70.81;100545.78;4909587;29;20190;-87
2022/12/26 10:24:34;;;;;;;0.70;0.70;;;;;;;-4.32;70.87;100547.59;4930341;29;20083;-86
2022/12/26 10:27:11;;;;;;;0.80;0.80;;;;;;;-4.33;70.45;100537.97;4911941;29;20124;-85
2022/12/26 10:29:40;;;;;;;0.70;0.70;;;;;;;-4.58;70.26;100523.97;4908317;29;20147;-85
2022/12/26 10:32:13;;;;;;;0.70;0.70;;;;;;;-4.61;70.36;100522.38;4910312;29;20056;-85
2022/12/26 10:34:43;;;;;;;0.63;0.63;;;;;;;-4.52;70.51;100530.56;4945600;28;20055;-84
2022/12/26 10:37:17;;;;;;;0.70;0.70;;;;;;;-4.55;70.79;100536.06;4973050;28;20066;-84
2022/12/26 10:39:47;;;;;;;;;;;;;;;-4.60;70.85;100528.50;4982789;28;20046;-84
2022/12/26 10:42:33;;;;;;;0.93;0.93;;;;;;;-4.59;70.68;100525.72;4989671;28;19925;-86
2022/12/26 10:45:11;;;;;;;0.95;0.95;;;;;;;-4.52;71.04;100534.03;4968211;28;20485;-84
2022/12/26 10:47:40;;;;;;;0.70;0.70;;;;;;;-4.48;71.13;100524.09;4974972;28;20058;-84
2022/12/26 10:50:23;;;;;;;0.90;0.90;;;;;;;-4.40;71.24;100509.44;4937342;28;20054;-85
2022/12/26 10:52:55;;;;;;;0.90;0.90;;;;;;;-4.60;70.51;100502.13;4970309;28;20057;-85
2022/12/26 10:55:27;;;;;;;0.77;0.77;;;;;;;-4.69;70.76;100497.53;4954811;28;20046;-84
2022/12/26 10:57:58;;;;;;;;;;;;;;;-4.56;70.65;100519.38;4963297;28;20060;-84
2022/12/26 11:00:27;;;;;;;0.90;0.90;;;;;;;-4.66;70.77;100515.72;4986258;28;19932;-84
2022/12/26 11:03:18;;;;;;;0.75;0.75;;;;;;;-4.64;71.00;100521.75;4985367;28;20097;-85
2022/12/26 11:05:53;;;;;;;0.70;0.70;;;;;;;-4.65;70.70;100513.00;4964424;28;20058;-85
2022/12/26 11:08:48;;;;;;;0.82;0.82;;;;;;;-4.64;70.15;100524.38;4991388;28;20497;-87
2022/12/26 11:11:22;;;;;;;0.82;0.82;;;;;;;-4.72;69.70;100522.28;4990033;28;20064;-85
2022/12/26 11:13:55;;;;;;;0.80;0.80;;;;;;;-4.77;70.05;100518.31;4977040;28;20110;-89
2022/12/26 11:16:31;;;;;;;0.88;0.88;;;;;;;-4.72;70.38;100524.09;5007288;28;20051;-86
2022/12/26 11:18:58;;;;;;;0.80;0.80;;;;;;;-4.74;70.38;100521.56;5011657;28;20031;-87
2022/12/26 11:21:28;;;;;;;0.70;0.70;;;;;;;-4.71;70.40;100517.84;4981881;28;20090;-87
2022/12/26 11:24:07;;;;;;;0.75;0.75;;;;;;;-4.61;70.55;100519.75;4965724;28;20098;-84
2022/12/26 11:26:36;;;;;;;0.75;0.75;;;;;;;-4.69;70.73;100498.34;4949660;28;20054;-86
2022/12/26 11:29:16;;;;;;;0.60;0.60;;;;;;;-4.59;70.77;100506.44;4966295;28;20051;-85
2022/12/26 11:31:55;;;;;;;0.70;0.70;;;;;;;-4.60;70.39;100507.41;4974138;28;20081;-86
2022/12/26 11:34:36;;;;;;;0.75;0.75;;;;;;;-4.66;70.31;100508.69;4965647;28;20053;-87
2022/12/26 11:37:04;;;;;;;0.60;0.60;;;;;;;-4.68;70.36;100510.59;4964677;28;20149;-86
2022/12/26 11:39:35;;;;;;;0.70;0.70;;;;;;;-4.77;70.52;100499.88;4949366;28;20050;-87
2022/12/26 11:42:17;;;;;;;0.60;0.60;;;;;;;-4.77;70.66;100515.69;4943329;28;20101;-86
2022/12/26 11:44:53;;;;;;;0.60;0.60;;;;;;;-4.86;70.74;100489.03;4962422;28;20051;-84
2022/12/26 11:47:28;;;;;;;0.60;0.60;;;;;;;-4.80;71.30;100506.19;4977836;28;20104;-85
2022/12/26 11:49:59;;;;;;;0.75;0.75;;;;;;;-4.78;70.90;100517.47;4965088;28;20057;-84
2022/12/26 11:52:36;;;;;;;0.90;0.90;;;;;;;-4.77;70.87;100515.69;4971793;28;20632;-87
2022/12/26 11:55:23;;;;;;;1.05;1.05;;;;;;;-4.84;70.73;100508.19;4985264;28;20205;-86
2022/12/26 11:57:55;;;;;;;0.88;0.88;;;;;;;-4.82;70.90;100513.34;4964828;28;20051;-87
2022/12/26 12:00:25;;;;;;;0.93;0.93;;;;;;;-4.93;71.00;100508.03;4986445;28;20055;-85
2022/12/26 12:02:53;;;;;;;0.73;0.73;;;;;;;-4.99;71.00;100504.00;4962086;28;20074;-86
2022/12/26 12:05:39;;;;;;;0.68;0.68;;;;;;;-4.92;71.05;100521.06;4967978;28;20061;-87
2022/12/26 12:08:25;;;;;;;0.65;0.65;;;;;;;-5.03;71.10;100513.09;4953647;28;20073;-86
2022/12/26 12:11:22;;;;;;;0.80;0.80;;;;;;;-5.01;71.62;100521.72;4976583;28;20120;-85
2022/12/26 12:14:28;;;;;;;0.80;0.80;;;;;;;-5.18;71.94;100506.28;4964979;28;20050;-84
2022/12/26 12:17:03;;;;;;;0.85;0.85;;;;;;;-5.21;71.79;100512.59;4950073;29;20071;-87
2022/12/26 12:19:33;;;;;;;0.90;0.90;;;;;;;-5.15;71.80;100524.47;4947201;29;20051;-85
2022/12/26 12:22:25;;;;;;;0.73;0.73;;;;;;;-5.19;72.17;100523.00;4920667;29;20048;-85
2022/12/26 12:25:13;;;;;;;0.80;0.80;;;;;;;-5.24;72.26;100520.72;4948078;28;20071;-84
2022/12/26 12:27:52;;;;;;;0.80;0.80;;;;;;;-5.33;72.42;100516.91;4932517;29;20055;-88
2022/12/26 12:30:27;;;;;;;0.60;0.60;;;;;;;-5.21;72.54;100531.00;4934250;29;20462;-88
2022/12/26 12:33:21;;;;;;;0.73;0.73;;;;;;;-5.15;72.74;100524.47;4927916;29;20055;-86
2022/12/26 12:36:00;;;;;;;0.60;0.60;;;;;;;-5.18;72.29;100527.31;4946112;28;20067;-88
2022/12/26 12:38:46;;;;;;;0.70;0.70;;;;;;;-5.31;71.99;100530.81;4954893;28;20186;-87
2022/12/26 12:41:32;;;;;;;0.60;0.60;;;;;;;-5.35;72.27;100520.59;4924586;29;20524;-87
2022/12/26 12:44:18;;;;;;;0.60;0.60;;;;;;;-5.35;72.34;100529.31;4931687;29;20054;-86
2022/12/26 12:47:19;;;;;;;0.90;0.90;;;;;;;-5.34;72.47;100531.03;4948092;29;20047;-86
2022/12/26 12:49:58;;;;;;;0.95;0.95;;;;;;;-5.36;72.35;100526.81;4934748;29;20174;-90
2022/12/26 12:53:08;;;;;;;0.60;0.60;;;;;;;-5.54;72.58;100503.44;4950787;28;20043;-88
2022/12/26 12:55:48;;;;;;;0.50;0.50;;;;;;;-5.56;72.46;100502.69;4945301;28;20123;-88
2022/12/26 12:58:40;;;;;;;0.60;0.60;;;;;;;-5.46;72.49;100522.16;4953847;28;20046;-85
2022/12/26 13:01:18;;;;;;;0.60;0.60;;;;;;;-5.60;72.59;100508.25;4981847;28;20911;-87
2022/12/26 13:03:54;;;;;;;0.60;0.60;;;;;;;-5.58;73.10;100516.91;4948262;28;20039;-89
2022/12/26 13:06:25;;;;;;;0.70;0.70;;;;;;;-5.64;73.14;100506.81;4944281;28;20093;-87
2022/12/26 13:09:18;;;;;;;0.70;0.70;;;;;;;-5.51;73.19;100513.75;4979815;28;20828;-91
2022/12/26 13:12:00;;;;;;;0.73;0.73;;;;;;;-5.50;73.33;100520.69;4982308;28;20376;-87
2022/12/26 13:14:43;;;;;;;0.70;0.70;;;;;;;-5.55;73.32;100503.53;4960062;28;20054;-89
2022/12/26 13:17:31;;;;;;;0.80;0.80;;;;;;;-5.49;73.50;100516.28;4965445;28;20057;-85
2022/12/26 13:20:14;;;;;;;0.70;0.70;;;;;;;-5.56;73.62;100518.47;4976037;28;20162;-89
2022/12/26 13:25:47;;;;;;;0.80;0.80;;;;;;;-5.65;73.97;100516.47;4971669;28;20058;-85
2022/12/26 13:28:25;;;;;;;0.70;0.70;;;;;;;-5.71;73.81;100495.84;4956581;28;20058;-85
2022/12/26 13:30:54;;;;;;;0.80;0.80;;;;;;;-5.59;73.92;100523.94;4975277;28;20065;-86
2022/12/26 13:33:22;;;;;;;0.70;0.70;;;;;;;-5.73;73.57;100508.25;4980394;28;20058;-88
2022/12/26 13:35:58;;;;;;;0.80;0.80;;;;;;;-5.60;73.58;100524.88;4982926;28;20077;-85
2022/12/26 13:38:57;;;;;;;0.70;0.70;;;;;;;-5.59;73.35;100528.38;4967387;28;20592;-86
2022/12/26 13:44:20;;;;;;;0.68;0.68;;;;;;;-5.64;73.58;100527.84;4992987;28;20154;-91
2022/12/26 13:47:01;;;;;;;0.60;0.60;;;;;;;-5.67;73.60;100524.47;4973792;28;20043;-90
2022/12/26 13:49:35;;;;;;;0.75;0.75;;;;;;;-5.63;73.74;100513.72;4987952;28;20076;-90
2022/12/26 13:52:18;;;;;;;0.80;0.80;;;;;;;-5.56;73.76;100521.09;4984298;28;20051;-93
2022/12/26 13:54:50;;;;;;;0.77;0.77;;;;;;;-5.54;73.86;100510.50;4984032;28;20046;-90
2022/12/26 13:57:46;;;;;;;0.73;0.73;;;;;;;-5.55;74.26;100517.50;4965661;28;20085;-89
2022/12/26 14:00:15;;;;;;;;;;;;;;;-5.55;74.14;100511.41;4945721;28;20108;-91
2022/12/26 14:03:18;;;;;;;0.70;0.70;;;;;;;-5.54;74.34;100519.22;4992098;28;19929;-89
2022/12/26 14:06:33;;;;;;;0.82;0.82;;;;;;;-5.61;74.43;100506.59;4914458;29;20621;-91
2022/12/26 14:09:48;;;;;;;0.80;0.80;;;;;;;-5.53;74.47;100509.53;4903844;29;20053;-90